Patuxent River Naval Air Station,Trapnell Field Aiport Patuxent River US
ICAO: KNHK
IATA: NHK
Category: Medium
Scheduled Services: No

Elevation: 39 ft
TransAlt. 18000 ft.

Airport Communications:
APP/DEP:120.05
ATIS:27.62
CLNC DEL:135.2
GND:120.6
BASE OPS:30.255
PMSV METRO:35.62
LEESBURG RDO:117.6
TWR:123.7

KNHK Zoom In..

Runways:

(A) RW 02 length 5021 ft width 75 ft
---- / hdg 18

(B) RW 06 length 11807 ft width 200 ft
---- / hdg 59

(C) RW 14 length 9742 ft width 200 ft
---- / hdg 136

(D) RW 20 length 5021 ft width 75 ft
---- / hdg 198

(E) RW 24 length 11807 ft width 200 ft
---- / hdg 239

(F) RW 32 length 9742 ft width 200 ft
---- / hdg 316

Location; KNHK
Day. 29 / Time. 08.52 Zulu
* Altimeter: 30.05
* Temperature: 23° c. 73.4°f.
* Wind from: 180° Speed 05 kn.
Dewpoint: 22° c.
Visibility: 10 Statute Miles.
Clouds: Overcast 2200 ft.

KNHK 290852Z AUTO 18005KT 10SM OVC022 23/22 A3005 RMK AO2 SLP176 T02280222 58001 $


Wind From 180°
Speed 05 kn.

 
 
jpsmedia worldairports.se 2020   terms of use